createdAt,value
2018-08-08T00:00:23.100Z,99068.91
2018-08-08T00:02:52.690Z,99063.63
2018-08-08T00:05:22.329Z,99061.43
2018-08-08T00:07:51.522Z,99066.95
2018-08-08T00:10:21.455Z,99062.00
2018-08-08T00:12:51.146Z,99056.02
2018-08-08T00:15:20.351Z,99060.62
2018-08-08T00:17:49.835Z,99054.36
2018-08-08T00:20:18.738Z,99050.58
2018-08-08T00:22:47.759Z,99048.14
2018-08-08T00:25:16.958Z,99038.59
2018-08-08T00:27:46.414Z,99038.92
2018-08-08T00:30:16.609Z,99041.47
2018-08-08T00:32:46.399Z,99043.99
2018-08-08T00:35:15.331Z,99052.03
2018-08-08T00:37:44.349Z,99054.11
2018-08-08T00:40:14.529Z,99056.17
2018-08-08T00:42:44.540Z,99053.28
2018-08-08T00:45:15.562Z,99049.02
2018-08-08T00:47:45.539Z,99042.55
2018-08-08T00:50:15.828Z,99049.21
2018-08-08T00:52:45.200Z,99053.80
2018-08-08T00:55:14.442Z,99051.96
2018-08-08T00:57:43.774Z,99051.83
2018-08-08T01:00:14.837Z,99056.05
2018-08-08T01:02:44.245Z,99045.70
2018-08-08T01:05:14.588Z,99048.78
2018-08-08T01:07:44.503Z,99042.48
2018-08-08T01:10:13.639Z,99039.93
2018-08-08T01:12:42.724Z,99041.31
2018-08-08T01:15:12.869Z,99039.60
2018-08-08T01:17:42.352Z,99037.08
2018-08-08T01:20:12.799Z,99023.80
2018-08-08T01:22:42.015Z,99028.45
2018-08-08T01:25:12.970Z,99030.39
2018-08-08T01:27:42.831Z,99023.84
2018-08-08T01:30:15.595Z,99024.41
2018-08-08T01:32:45.192Z,99021.98
2018-08-08T01:35:14.725Z,99028.08
2018-08-08T01:37:44.233Z,99019.58
2018-08-08T01:40:15.476Z,99016.91
2018-08-08T01:42:44.718Z,99015.88
2018-08-08T01:45:15.313Z,99018.64
2018-08-08T01:47:44.694Z,99017.55
2018-08-08T01:50:14.931Z,99024.00
2018-08-08T01:52:44.077Z,99023.52
2018-08-08T01:55:14.236Z,99016.61
2018-08-08T01:57:43.311Z,99019.86
2018-08-08T02:00:13.874Z,99011.33
2018-08-08T02:02:42.997Z,99010.28
2018-08-08T02:05:12.464Z,99008.44
2018-08-08T02:07:41.642Z,99005.11
2018-08-08T02:10:18.637Z,99002.23
2018-08-08T02:12:49.665Z,99006.69
2018-08-08T02:15:19.353Z,99005.06
2018-08-08T02:17:48.347Z,98997.36
2018-08-08T02:20:17.527Z,99006.23
2018-08-08T02:22:47.483Z,98994.70
2018-08-08T02:25:17.400Z,98983.22
2018-08-08T02:27:46.428Z,98986.87
2018-08-08T02:30:18.582Z,98989.38
2018-08-08T02:32:49.162Z,98990.31
2018-08-08T02:35:19.659Z,98988.69
2018-08-08T02:37:48.913Z,98989.85
2018-08-08T02:40:17.821Z,98989.85
2018-08-08T02:42:46.994Z,98985.23
2018-08-08T02:45:18.723Z,98988.55
2018-08-08T02:47:48.726Z,98993.05
2018-08-08T02:50:19.233Z,98993.38
2018-08-08T02:52:48.512Z,98992.56
2018-08-08T02:55:17.680Z,98992.92
2018-08-08T02:57:46.655Z,98999.00
2018-08-08T03:00:17.978Z,98997.27
2018-08-08T03:02:47.271Z,98997.27
2018-08-08T03:05:16.946Z,98996.70
2018-08-08T03:07:46.283Z,99002.46
2018-08-08T03:10:17.258Z,98995.00
2018-08-08T03:12:46.728Z,98989.48
2018-08-08T03:15:18.479Z,98987.28
2018-08-08T03:17:47.544Z,98991.42
2018-08-08T03:20:17.198Z,98996.38
2018-08-08T03:22:48.134Z,98998.33
2018-08-08T03:25:17.868Z,99004.41
2018-08-08T03:27:47.737Z,99002.22
2018-08-08T03:30:21.267Z,99011.88
2018-08-08T03:32:50.574Z,99002.92
2018-08-08T03:35:20.562Z,98999.02
2018-08-08T03:37:50.387Z,98995.37
2018-08-08T03:40:19.787Z,98996.97
2018-08-08T03:42:49.218Z,98991.45
2018-08-08T03:45:18.292Z,98991.69
2018-08-08T03:47:47.248Z,98996.07
2018-08-08T03:50:16.659Z,98995.83
2018-08-08T03:52:45.998Z,98995.83
2018-08-08T03:55:15.197Z,98996.39
2018-08-08T03:57:44.385Z,98999.72
2018-08-08T04:00:22.345Z,98998.91
2018-08-08T04:02:51.882Z,98997.89
2018-08-08T04:05:22.499Z,98999.51
2018-08-08T04:07:51.859Z,99000.08
2018-08-08T04:10:20.765Z,98997.40
2018-08-08T04:12:56.376Z,98993.38
2018-08-08T04:15:25.920Z,98995.75
2018-08-08T04:17:55.233Z,99008.41
2018-08-08T04:20:24.423Z,99010.85
2018-08-08T04:22:56.836Z,99012.69
2018-08-08T04:25:26.567Z,99009.49
2018-08-08T04:27:55.629Z,99016.33
2018-08-08T04:30:24.702Z,99010.13
2018-08-08T04:32:54.022Z,99010.83
2018-08-08T04:35:23.059Z,99011.31
2018-08-08T04:37:52.075Z,99011.77
2018-08-08T04:40:21.290Z,99010.28
2018-08-08T04:42:50.696Z,99013.84
2018-08-08T04:45:20.174Z,99011.58
2018-08-08T04:47:49.182Z,99016.98
2018-08-08T04:50:18.493Z,99013.93
2018-08-08T04:52:47.686Z,99016.01
2018-08-08T04:55:17.631Z,99018.08
2018-08-08T04:57:46.920Z,99017.16
2018-08-08T05:00:17.491Z,99012.58
2018-08-08T05:02:46.759Z,99023.98
2018-08-08T05:05:16.405Z,99015.50
2018-08-08T05:07:45.643Z,99023.47
2018-08-08T05:10:14.571Z,99022.09
2018-08-08T05:12:43.623Z,99021.53
2018-08-08T05:15:17.872Z,99019.38
2018-08-08T05:17:48.254Z,99024.00
2018-08-08T05:20:17.462Z,99029.89
2018-08-08T05:22:50.453Z,99033.27
2018-08-08T05:25:20.042Z,99038.82
2018-08-08T05:27:49.366Z,99033.86
2018-08-08T05:30:20.172Z,99038.37
2018-08-08T05:32:49.419Z,99040.67
2018-08-08T05:35:19.923Z,99040.22
2018-08-08T05:37:49.216Z,99038.15
2018-08-08T05:40:21.438Z,99037.21
2018-08-08T05:42:51.511Z,99047.04
2018-08-08T05:45:21.394Z,99054.06
2018-08-08T05:47:52.086Z,99045.41
2018-08-08T05:50:21.288Z,99045.31
2018-08-08T05:52:50.485Z,99049.67
2018-08-08T05:55:20.442Z,99044.38
2018-08-08T05:57:49.922Z,99046.11
2018-08-08T06:00:27.165Z,99054.52
2018-08-08T06:02:56.254Z,99057.86
2018-08-08T06:05:25.855Z,99058.66
2018-08-08T06:07:55.745Z,99053.70
2018-08-08T06:10:24.877Z,99056.59
2018-08-08T06:12:54.211Z,99052.78
2018-08-08T06:15:23.395Z,99055.91
2018-08-08T06:17:52.934Z,99058.43
2018-08-08T06:20:22.848Z,99062.81
2018-08-08T06:22:52.130Z,99061.44
2018-08-08T06:25:21.104Z,99063.27
2018-08-08T06:27:50.168Z,99065.34
2018-08-08T06:30:23.358Z,99062.48
2018-08-08T06:32:53.759Z,99062.59
2018-08-08T06:35:24.982Z,99064.91
2018-08-08T06:37:54.806Z,99062.26
2018-08-08T06:40:23.996Z,99072.95
2018-08-08T06:42:53.255Z,99077.79
2018-08-08T06:45:24.323Z,99077.58
2018-08-08T06:47:53.368Z,99081.77
2018-08-08T06:50:22.499Z,99077.13
2018-08-08T06:52:51.907Z,99072.77
2018-08-08T06:55:21.133Z,99066.20
2018-08-08T06:57:50.344Z,99064.34
2018-08-08T07:00:22.806Z,99058.92
2018-08-08T07:02:51.976Z,99061.23
2018-08-08T07:05:21.338Z,99066.54
2018-08-08T07:07:51.152Z,99069.05
2018-08-08T07:10:20.692Z,99066.86
2018-08-08T07:12:49.889Z,99067.20
2018-08-08T07:15:20.376Z,99064.75
2018-08-08T07:17:49.843Z,99062.89
2018-08-08T07:20:25.866Z,99058.84
2018-08-08T07:22:54.880Z,99063.70
2018-08-08T07:25:23.936Z,99067.39
2018-08-08T07:27:53.102Z,99071.31
2018-08-08T07:30:22.111Z,99076.62
2018-08-08T07:32:51.480Z,99068.04
2018-08-08T07:35:20.583Z,99080.50
2018-08-08T07:37:49.716Z,99078.27
2018-08-08T07:40:19.757Z,99073.53
2018-08-08T07:42:48.871Z,99079.38
2018-08-08T07:45:26.278Z,99079.72
2018-08-08T07:47:55.528Z,99076.23
2018-08-08T07:50:24.753Z,99081.30
2018-08-08T07:52:54.060Z,99079.67
2018-08-08T07:55:23.625Z,99072.73
2018-08-08T07:57:53.571Z,99075.69
2018-08-08T08:00:26.443Z,99076.02
2018-08-08T08:02:56.118Z,99077.73
2018-08-08T08:05:25.235Z,99076.67
2018-08-08T08:07:54.717Z,99078.01
2018-08-08T08:10:23.668Z,99081.20
2018-08-08T08:12:52.656Z,99073.45
2018-08-08T08:15:21.755Z,99077.53
2018-08-08T08:17:50.956Z,99091.35
2018-08-08T08:20:20.427Z,99095.29
2018-08-08T08:22:50.563Z,99096.05
2018-08-08T08:25:19.609Z,99099.60
2018-08-08T08:27:48.946Z,99098.97
2018-08-08T08:30:19.384Z,99100.17
2018-08-08T08:32:48.553Z,99098.95
2018-08-08T08:35:17.918Z,99112.05
2018-08-08T08:37:47.224Z,99108.05
2018-08-08T08:40:16.273Z,99102.45
2018-08-08T08:42:45.321Z,99106.38
2018-08-08T08:45:14.754Z,99107.12
2018-08-08T08:47:44.243Z,99104.84
2018-08-08T08:50:14.382Z,99105.81
2018-08-08T08:52:44.300Z,99099.83
2018-08-08T08:55:13.386Z,99101.02
2018-08-08T08:57:42.954Z,99094.06
2018-08-08T09:00:14.399Z,99094.53
2018-08-08T09:02:43.908Z,99095.48
2018-08-08T09:05:13.502Z,99097.69
2018-08-08T09:07:42.513Z,99098.25
2018-08-08T09:10:12.292Z,99097.45
2018-08-08T09:12:41.962Z,99094.21
2018-08-08T09:15:12.838Z,99098.58
2018-08-08T09:17:42.187Z,99098.31
2018-08-08T09:20:11.379Z,99100.41
2018-08-08T09:22:40.491Z,99091.60
2018-08-08T09:25:09.657Z,99093.56
2018-08-08T09:27:38.761Z,99095.48
2018-08-08T09:30:10.458Z,99094.44
2018-08-08T09:32:41.033Z,99094.77
2018-08-08T09:35:10.522Z,99093.74
2018-08-08T09:37:40.120Z,99094.07
2018-08-08T09:40:10.009Z,99096.57
2018-08-08T09:42:39.179Z,99086.55
2018-08-08T09:45:09.468Z,99088.91
2018-08-08T09:47:38.946Z,99072.72
2018-08-08T09:50:08.465Z,99071.86
2018-08-08T09:52:37.500Z,99071.59
2018-08-08T09:55:06.585Z,99068.52
2018-08-08T09:57:35.589Z,99062.84
2018-08-08T10:00:06.116Z,99065.34
2018-08-08T10:02:37.561Z,99064.06
2018-08-08T10:05:07.458Z,99064.20
2018-08-08T10:07:36.366Z,99065.34
2018-08-08T10:10:05.488Z,99071.23
2018-08-08T10:12:34.562Z,99071.92
2018-08-08T10:15:03.706Z,99068.83
2018-08-08T10:17:32.879Z,99066.73
2018-08-08T10:20:02.028Z,99067.84
2018-08-08T10:22:30.985Z,99060.76
2018-08-08T10:25:00.091Z,99063.41
2018-08-08T10:27:29.239Z,99058.48
2018-08-08T10:29:58.273Z,99059.79
2018-08-08T10:32:27.486Z,99052.86
2018-08-08T10:34:56.556Z,99057.92
2018-08-08T10:37:25.679Z,99062.16
2018-08-08T10:39:54.983Z,99061.44
2018-08-08T10:42:24.283Z,99059.89
2018-08-08T10:44:53.830Z,99054.75
2018-08-08T10:47:22.978Z,99057.96
2018-08-08T10:49:52.085Z,99055.00
2018-08-08T10:52:21.446Z,99045.23
2018-08-08T10:54:50.453Z,99053.05
2018-08-08T10:57:19.425Z,99057.28
2018-08-08T10:59:48.326Z,99054.12
2018-08-08T11:02:17.306Z,99063.72
2018-08-08T11:04:46.324Z,99057.53
2018-08-08T11:07:15.398Z,99048.95
2018-08-08T11:09:44.455Z,99059.95
2018-08-08T11:12:13.489Z,99056.34
2018-08-08T11:14:42.427Z,99055.56
2018-08-08T11:17:11.664Z,99064.98
2018-08-08T11:19:41.188Z,99058.78
2018-08-08T11:22:10.402Z,99061.78
2018-08-08T11:24:39.935Z,99060.95
2018-08-08T11:27:08.972Z,99050.95
2018-08-08T11:29:37.899Z,99049.56
2018-08-08T11:32:06.977Z,99049.74
2018-08-08T11:34:36.363Z,99047.30
2018-08-08T11:37:05.946Z,99047.68
2018-08-08T11:39:35.578Z,99051.04
2018-08-08T11:42:04.878Z,99045.43
2018-08-08T11:44:33.965Z,99045.02
2018-08-08T11:47:03.395Z,99029.96
2018-08-08T11:49:32.479Z,99033.30
2018-08-08T11:52:02.093Z,99029.86
2018-08-08T11:54:31.770Z,99031.81
2018-08-08T11:57:01.221Z,99024.41
2018-08-08T11:59:30.479Z,99023.98
2018-08-08T12:01:59.492Z,99026.95
2018-08-08T12:04:28.916Z,99030.30
2018-08-08T12:06:58.299Z,99024.23
2018-08-08T12:09:27.318Z,99025.61
2018-08-08T12:11:56.603Z,99014.77
2018-08-08T12:14:25.596Z,99010.94
2018-08-08T12:16:55.102Z,99014.92
2018-08-08T12:19:24.064Z,99004.25
2018-08-08T12:21:53.438Z,99009.00
2018-08-08T12:24:22.649Z,99001.91
2018-08-08T12:26:52.324Z,98996.63
2018-08-08T12:29:21.323Z,99009.40
2018-08-08T12:31:50.405Z,99007.55
2018-08-08T12:34:20.505Z,98998.24
2018-08-08T12:36:49.872Z,99001.38
2018-08-08T12:39:19.265Z,99000.33
2018-08-08T12:41:48.778Z,99001.49
2018-08-08T12:44:17.882Z,98996.95
2018-08-08T12:46:47.138Z,98989.16
2018-08-08T12:49:17.007Z,98991.17
2018-08-08T12:51:46.455Z,98988.77
2018-08-08T12:54:15.575Z,98986.77
2018-08-08T12:56:45.049Z,98987.41
2018-08-08T12:59:14.090Z,98989.08
2018-08-08T13:01:43.355Z,98979.81
2018-08-08T13:04:12.432Z,98983.83
2018-08-08T13:06:41.461Z,98983.47
2018-08-08T13:09:12.002Z,98976.63
2018-08-08T13:11:41.065Z,98981.02
2018-08-08T13:14:10.440Z,98975.83
2018-08-08T13:16:39.683Z,98968.23
2018-08-08T13:19:08.750Z,98969.85
2018-08-08T13:21:38.166Z,98972.54
2018-08-08T13:24:07.059Z,98972.81
2018-08-08T13:26:36.208Z,98977.89
2018-08-08T13:29:05.862Z,98977.33
2018-08-08T13:31:35.179Z,98977.94
2018-08-08T13:34:04.159Z,98978.60
2018-08-08T13:36:33.983Z,98981.61
2018-08-08T13:39:03.419Z,98976.42
2018-08-08T13:41:32.613Z,98979.84
2018-08-08T13:44:01.976Z,98971.58
2018-08-08T13:46:31.190Z,98970.55
2018-08-08T13:49:00.235Z,98975.13
2018-08-08T13:51:29.265Z,98972.52
2018-08-08T13:53:58.955Z,98977.33
2018-08-08T13:56:28.078Z,98976.93
2018-08-08T13:58:56.978Z,98969.30
2018-08-08T14:01:26.431Z,98964.25
2018-08-08T14:03:55.600Z,98966.42
2018-08-08T14:06:25.054Z,98970.80
2018-08-08T14:08:54.878Z,98960.33
2018-08-08T14:11:23.996Z,98955.67
2018-08-08T14:13:53.063Z,98953.27
2018-08-08T14:16:22.047Z,98953.62
2018-08-08T14:18:51.928Z,98950.02
2018-08-08T14:21:21.490Z,98941.79
2018-08-08T14:23:50.420Z,98938.98
2018-08-08T14:26:19.531Z,98928.94
2018-08-08T14:28:48.485Z,98937.20
2018-08-08T14:31:17.496Z,98938.41
2018-08-08T14:33:46.970Z,98946.84
2018-08-08T14:36:16.201Z,98961.70
2018-08-08T14:38:45.218Z,98956.27
2018-08-08T14:41:15.235Z,98961.70
2018-08-08T14:43:44.373Z,98962.91
2018-08-08T14:46:13.962Z,98957.08
2018-08-08T14:48:43.038Z,98953.91
2018-08-08T14:51:12.013Z,98950.30
2018-08-08T14:53:41.059Z,98958.31
2018-08-08T14:56:14.348Z,98957.28
2018-08-08T14:58:43.496Z,98948.85
2018-08-08T15:01:12.659Z,98952.06
2018-08-08T15:03:41.780Z,98956.44
2018-08-08T15:06:10.932Z,98953.03
2018-08-08T15:08:40.112Z,98938.01
2018-08-08T15:11:09.254Z,98947.25
2018-08-08T15:13:38.315Z,98942.66
2018-08-08T15:16:07.746Z,98936.48
2018-08-08T15:18:36.986Z,98937.89
2018-08-08T15:21:06.002Z,98951.53
2018-08-08T15:23:35.163Z,98952.74
2018-08-08T15:26:04.275Z,98948.53
2018-08-08T15:28:33.440Z,98949.94
2018-08-08T15:31:03.190Z,98960.16
2018-08-08T15:33:32.413Z,98960.77
2018-08-08T15:36:01.549Z,98962.58
2018-08-08T15:38:30.637Z,98958.59
2018-08-08T15:41:00.042Z,98951.81
2018-08-08T15:43:29.348Z,98949.41
2018-08-08T15:45:58.736Z,98956.42
2018-08-08T15:48:28.063Z,98960.03
2018-08-08T15:50:57.386Z,98960.23
2018-08-08T15:53:26.436Z,98951.00
2018-08-08T15:55:55.487Z,98945.62
2018-08-08T15:58:24.960Z,98956.46
2018-08-08T16:00:53.958Z,98950.64
2018-08-08T16:03:23.085Z,98946.23
2018-08-08T16:05:52.287Z,98957.50
2018-08-08T16:08:21.372Z,98962.12
2018-08-08T16:10:50.649Z,98967.97
2018-08-08T16:13:19.710Z,98959.17
2018-08-08T16:15:49.003Z,98968.03
2018-08-08T16:18:18.168Z,98962.88
2018-08-08T16:20:47.136Z,98966.13
2018-08-08T16:23:16.406Z,98961.73
2018-08-08T16:25:45.911Z,98954.98
2018-08-08T16:28:15.303Z,98954.60
2018-08-08T16:30:44.302Z,98950.22
2018-08-08T16:33:13.491Z,98951.27
2018-08-08T16:35:42.614Z,98952.52
2018-08-08T16:38:11.740Z,98950.77
2018-08-08T16:40:40.901Z,98945.38
2018-08-08T16:43:10.054Z,98953.61
2018-08-08T16:45:39.722Z,98946.05
2018-08-08T16:48:08.928Z,98948.06
2018-08-08T16:50:38.013Z,98943.69
2018-08-08T16:53:07.104Z,98943.33
2018-08-08T16:55:36.378Z,98945.15
2018-08-08T16:58:05.698Z,98947.19
2018-08-08T17:00:35.219Z,98956.43
2018-08-08T17:03:04.450Z,98960.25
2018-08-08T17:05:34.022Z,98967.46
2018-08-08T17:08:03.197Z,98977.30
2018-08-08T17:10:32.310Z,98980.13
2018-08-08T17:13:01.289Z,98990.94
2018-08-08T17:15:30.846Z,99000.96
2018-08-08T17:18:00.208Z,98997.75
2018-08-08T17:20:29.377Z,99008.58
2018-08-08T17:22:58.427Z,99006.16
2018-08-08T17:25:27.886Z,99015.58
2018-08-08T17:27:57.224Z,99012.78
2018-08-08T17:30:26.470Z,99014.12
2018-08-08T17:32:55.517Z,99015.53
2018-08-08T17:35:25.343Z,99018.56
2018-08-08T17:37:54.298Z,99021.57
2018-08-08T17:40:23.294Z,99014.35
2018-08-08T17:42:52.996Z,99012.95
2018-08-08T17:45:22.401Z,99010.16
2018-08-08T17:47:51.643Z,99017.57
2018-08-08T17:50:20.701Z,99016.97
2018-08-08T17:52:49.563Z,99016.38
2018-08-08T17:55:18.945Z,99013.75
2018-08-08T17:57:48.188Z,99009.38
2018-08-08T18:00:17.626Z,99012.95
2018-08-08T18:02:47.982Z,99007.95
2018-08-08T18:05:16.937Z,98999.33
2018-08-08T18:07:48.341Z,99001.33
2018-08-08T18:10:17.590Z,98995.93
2018-08-08T18:12:46.564Z,98995.27
2018-08-08T18:15:15.512Z,98994.44
2018-08-08T18:17:46.796Z,98999.62
2018-08-08T18:20:15.935Z,99001.98
2018-08-08T18:22:45.579Z,99003.30
2018-08-08T18:25:14.592Z,99004.44
2018-08-08T18:27:43.841Z,99011.97
2018-08-08T18:30:13.495Z,99016.50
2018-08-08T18:32:42.649Z,99022.83
2018-08-08T18:35:11.569Z,99028.92
2018-08-08T18:37:41.167Z,99023.21
2018-08-08T18:40:10.630Z,99032.70
2018-08-08T18:42:40.042Z,99043.17
2018-08-08T18:45:09.679Z,99051.61
2018-08-08T18:47:38.875Z,99054.67
2018-08-08T18:50:07.947Z,99053.34
2018-08-08T18:52:37.160Z,99061.23
2018-08-08T18:55:06.122Z,99063.70
2018-08-08T18:57:35.132Z,99073.75
2018-08-08T19:00:06.033Z,99078.22
2018-08-08T19:02:35.230Z,99080.92
2018-08-08T19:05:04.560Z,99078.05
2018-08-08T19:07:33.745Z,99078.19
2018-08-08T19:10:04.707Z,99084.27
2018-08-08T19:12:33.910Z,99086.78
2018-08-08T19:15:02.856Z,99092.23
2018-08-08T19:17:32.159Z,99097.53
2018-08-08T19:20:01.199Z,99091.06
2018-08-08T19:22:30.464Z,99094.16
2018-08-08T19:24:59.773Z,99100.08
2018-08-08T19:27:29.370Z,99096.79
2018-08-08T19:29:58.650Z,99102.89
2018-08-08T19:32:28.424Z,99108.00
2018-08-08T19:34:57.649Z,99109.70
2018-08-08T19:37:26.776Z,99114.63
2018-08-08T19:39:56.206Z,99109.11
2018-08-08T19:42:25.546Z,99115.82
2018-08-08T19:44:54.699Z,99115.31
2018-08-08T19:47:23.722Z,99117.82
2018-08-08T19:49:52.787Z,99121.12
2018-08-08T19:52:21.972Z,99120.88
2018-08-08T19:54:51.334Z,99122.98
2018-08-08T19:57:20.593Z,99128.06
2018-08-08T19:59:49.798Z,99115.84
2018-08-08T20:02:18.792Z,99118.34
2018-08-08T20:04:48.094Z,99115.30
2018-08-08T20:07:17.357Z,99117.80
2018-08-08T20:09:46.398Z,99115.95
2018-08-08T20:12:15.606Z,99122.81
2018-08-08T20:14:45.291Z,99124.36
2018-08-08T20:17:14.800Z,99133.88
2018-08-08T20:19:44.531Z,99139.02
2018-08-08T20:22:16.265Z,99142.73
2018-08-08T20:24:45.727Z,99145.67
2018-08-08T20:27:15.029Z,99149.63
2018-08-08T20:29:44.363Z,99153.14
2018-08-08T20:32:13.622Z,99156.66
2018-08-08T20:34:42.746Z,99167.72
2018-08-08T20:37:11.842Z,99166.84
2018-08-08T20:39:41.103Z,99171.30
2018-08-08T20:42:10.725Z,99174.59
2018-08-08T20:44:39.800Z,99180.81
2018-08-08T20:47:09.354Z,99178.53
2018-08-08T20:49:38.476Z,99181.02
2018-08-08T20:52:07.573Z,99177.80
2018-08-08T20:54:36.684Z,99178.73
2018-08-08T20:57:06.151Z,99181.67
2018-08-08T20:59:35.168Z,99176.00
2018-08-08T21:02:04.307Z,99181.10
2018-08-08T21:04:33.331Z,99178.48
2018-08-08T21:07:02.668Z,99180.02
2018-08-08T21:09:31.976Z,99178.17
2018-08-08T21:12:01.112Z,99174.97
2018-08-08T21:14:30.195Z,99169.91
2018-08-08T21:16:59.179Z,99166.67
2018-08-08T21:19:28.112Z,99167.63
2018-08-08T21:21:57.343Z,99161.03
2018-08-08T21:24:26.325Z,99156.78
2018-08-08T21:26:55.500Z,99155.70
2018-08-08T21:29:24.798Z,99152.23
2018-08-08T21:31:53.956Z,99157.13
2018-08-08T21:34:23.198Z,99157.28
2018-08-08T21:36:52.549Z,99161.59
2018-08-08T21:39:21.682Z,99163.68
2018-08-08T21:41:51.305Z,99156.30
2018-08-08T21:44:20.237Z,99164.17
2018-08-08T21:46:49.304Z,99183.19
2018-08-08T21:49:18.284Z,99191.55
2018-08-08T21:51:47.464Z,99195.08
2018-08-08T21:54:27.281Z,99195.63
2018-08-08T21:57:07.225Z,99193.37
2018-08-08T21:59:47.073Z,99188.79
2018-08-08T22:02:27.160Z,99184.45
2018-08-08T22:05:06.919Z,99179.38
2018-08-08T22:07:46.942Z,99170.27
2018-08-08T22:10:26.791Z,99162.16
2018-08-08T22:13:06.765Z,99153.25
2018-08-08T22:15:46.680Z,99159.47
2018-08-08T22:18:26.630Z,99162.48
2018-08-08T22:20:55.698Z,99154.15
2018-08-08T22:23:24.822Z,99149.41
2018-08-08T22:25:54.055Z,99153.00
2018-08-08T22:28:23.170Z,99160.59
2018-08-08T22:30:52.291Z,99148.92
2018-08-08T22:33:21.554Z,99145.19
2018-08-08T22:35:51.006Z,99141.03
2018-08-08T22:38:20.129Z,99140.69
2018-08-08T22:40:49.255Z,99143.23
2018-08-08T22:43:18.645Z,99147.16
2018-08-08T22:45:47.853Z,99140.45
2018-08-08T22:48:16.839Z,99133.74
2018-08-08T22:50:45.974Z,99124.26
2018-08-08T22:53:15.822Z,99106.22
2018-08-08T22:55:45.028Z,99093.50
2018-08-08T22:58:14.237Z,99102.31
2018-08-08T23:00:43.274Z,99115.30
2018-08-08T23:03:12.260Z,99129.23
2018-08-08T23:05:41.217Z,99149.80
2018-08-08T23:08:10.316Z,99164.26
2018-08-08T23:10:39.563Z,99160.47
2018-08-08T23:13:08.598Z,99164.41
2018-08-08T23:15:37.727Z,99164.52
2018-08-08T23:18:07.373Z,99167.66
2018-08-08T23:20:36.443Z,99168.34
2018-08-08T23:23:05.991Z,99176.20
2018-08-08T23:25:35.175Z,99186.86
2018-08-08T23:28:04.268Z,99186.97
2018-08-08T23:30:33.289Z,99195.67
2018-08-08T23:33:02.363Z,99199.94
2018-08-08T23:35:31.391Z,99204.70
2018-08-08T23:38:00.487Z,99206.09
2018-08-08T23:40:29.721Z,99207.11
2018-08-08T23:42:58.862Z,99212.89
2018-08-08T23:45:28.631Z,99216.11
2018-08-08T23:47:57.800Z,99211.60
2018-08-08T23:50:27.073Z,99220.16
2018-08-08T23:52:56.112Z,99220.36
2018-08-08T23:55:25.837Z,99209.50
2018-08-08T23:57:54.793Z,99208.11
